sensor_id;sensor_type;location;lat;lon;timestamp;temperature;humidity
4453;DHT22;2239;48.152;11.584;2023-07-30T00:01:32;19.90;99.90
4453;DHT22;2239;48.152;11.584;2023-07-30T00:03:58;19.80;99.90
4453;DHT22;2239;48.152;11.584;2023-07-30T00:06:24;19.80;99.90
4453;DHT22;2239;48.152;11.584;2023-07-30T00:08:50;19.80;99.90
4453;DHT22;2239;48.152;11.584;2023-07-30T00:11:15;19.70;99.90
4453;DHT22;2239;48.152;11.584;2023-07-30T00:13:41;19.60;99.90
4453;DHT22;2239;48.152;11.584;2023-07-30T00:16:07;19.60;99.90
4453;DHT22;2239;48.152;11.584;2023-07-30T00:18:32;19.60;99.90
4453;DHT22;2239;48.152;11.584;2023-07-30T00:20:58;19.50;99.90
4453;DHT22;2239;48.152;11.584;2023-07-30T00:23:23;19.40;99.90
4453;DHT22;2239;48.152;11.584;2023-07-30T00:25:49;19.30;99.90
4453;DHT22;2239;48.152;11.584;2023-07-30T00:28:14;19.40;99.90
4453;DHT22;2239;48.152;11.584;2023-07-30T00:30:40;19.40;99.90
4453;DHT22;2239;48.152;11.584;2023-07-30T00:33:05;19.30;99.90
4453;DHT22;2239;48.152;11.584;2023-07-30T00:35:31;19.30;99.90
4453;DHT22;2239;48.152;11.584;2023-07-30T00:37:57;19.30;99.90
4453;DHT22;2239;48.152;11.584;2023-07-30T00:40:22;19.30;99.90
4453;DHT22;2239;48.152;11.584;2023-07-30T00:42:48;19.20;99.90
4453;DHT22;2239;48.152;11.584;2023-07-30T00:45:13;19.10;99.90
4453;DHT22;2239;48.152;11.584;2023-07-30T00:47:39;19.10;99.90
4453;DHT22;2239;48.152;11.584;2023-07-30T00:50:06;19.00;99.90
4453;DHT22;2239;48.152;11.584;2023-07-30T00:52:32;19.00;99.90
4453;DHT22;2239;48.152;11.584;2023-07-30T00:54:59;19.00;99.90
4453;DHT22;2239;48.152;11.584;2023-07-30T00:57:27;19.00;99.90
4453;DHT22;2239;48.152;11.584;2023-07-30T00:59:53;18.90;99.90
4453;DHT22;2239;48.152;11.584;2023-07-30T01:02:18;18.90;99.90
4453;DHT22;2239;48.152;11.584;2023-07-30T01:04:44;18.80;99.90
4453;DHT22;2239;48.152;11.584;2023-07-30T01:07:10;18.80;99.90
4453;DHT22;2239;48.152;11.584;2023-07-30T01:09:36;18.70;99.90
4453;DHT22;2239;48.152;11.584;2023-07-30T01:12:03;18.60;99.90
4453;DHT22;2239;48.152;11.584;2023-07-30T01:14:30;18.70;99.90
4453;DHT22;2239;48.152;11.584;2023-07-30T01:16:57;18.70;99.90
4453;DHT22;2239;48.152;11.584;2023-07-30T01:19:23;18.70;99.90
4453;DHT22;2239;48.152;11.584;2023-07-30T01:21:49;18.60;99.90
4453;DHT22;2239;48.152;11.584;2023-07-30T01:24:14;18.70;99.90
4453;DHT22;2239;48.152;11.584;2023-07-30T01:26:48;18.60;99.90
4453;DHT22;2239;48.152;11.584;2023-07-30T01:29:25;18.60;99.90
4453;DHT22;2239;48.152;11.584;2023-07-30T01:31:56;18.50;99.90
4453;DHT22;2239;48.152;11.584;2023-07-30T01:34:27;18.50;99.90
4453;DHT22;2239;48.152;11.584;2023-07-30T01:36:53;18.50;99.90
4453;DHT22;2239;48.152;11.584;2023-07-30T01:39:20;18.50;99.90
4453;DHT22;2239;48.152;11.584;2023-07-30T01:41:46;18.50;99.90
4453;DHT22;2239;48.152;11.584;2023-07-30T01:44:11;18.50;99.90
4453;DHT22;2239;48.152;11.584;2023-07-30T01:46:37;18.50;99.90
4453;DHT22;2239;48.152;11.584;2023-07-30T01:49:02;18.40;99.90
4453;DHT22;2239;48.152;11.584;2023-07-30T01:51:28;18.40;99.90
4453;DHT22;2239;48.152;11.584;2023-07-30T01:53:54;18.50;99.90
4453;DHT22;2239;48.152;11.584;2023-07-30T01:56:20;18.50;99.90
4453;DHT22;2239;48.152;11.584;2023-07-30T01:58:45;18.50;99.90
4453;DHT22;2239;48.152;11.584;2023-07-30T02:01:11;18.50;99.90
4453;DHT22;2239;48.152;11.584;2023-07-30T02:03:37;18.50;99.90
4453;DHT22;2239;48.152;11.584;2023-07-30T02:06:02;18.50;99.90
4453;DHT22;2239;48.152;11.584;2023-07-30T02:08:28;18.50;99.90
4453;DHT22;2239;48.152;11.584;2023-07-30T02:10:57;18.50;99.90
4453;DHT22;2239;48.152;11.584;2023-07-30T02:13:24;18.50;99.90
4453;DHT22;2239;48.152;11.584;2023-07-30T02:15:50;18.50;99.90
4453;DHT22;2239;48.152;11.584;2023-07-30T02:18:15;18.50;99.90
4453;DHT22;2239;48.152;11.584;2023-07-30T02:20:41;18.60;99.90
4453;DHT22;2239;48.152;11.584;2023-07-30T02:23:07;18.60;99.90
4453;DHT22;2239;48.152;11.584;2023-07-30T02:25:33;18.60;99.90
4453;DHT22;2239;48.152;11.584;2023-07-30T02:28:00;18.70;99.90
4453;DHT22;2239;48.152;11.584;2023-07-30T02:30:28;18.70;99.90
4453;DHT22;2239;48.152;11.584;2023-07-30T02:32:54;18.70;99.90
4453;DHT22;2239;48.152;11.584;2023-07-30T02:35:20;18.70;99.90
4453;DHT22;2239;48.152;11.584;2023-07-30T02:37:45;18.80;99.90
4453;DHT22;2239;48.152;11.584;2023-07-30T02:40:11;18.80;99.90
4453;DHT22;2239;48.152;11.584;2023-07-30T02:42:37;18.80;99.90
4453;DHT22;2239;48.152;11.584;2023-07-30T02:45:03;18.80;99.90
4453;DHT22;2239;48.152;11.584;2023-07-30T02:47:28;18.80;99.90
4453;DHT22;2239;48.152;11.584;2023-07-30T02:49:54;18.80;99.90
4453;DHT22;2239;48.152;11.584;2023-07-30T02:52:20;18.80;99.90
4453;DHT22;2239;48.152;11.584;2023-07-30T02:54:45;18.80;99.90
4453;DHT22;2239;48.152;11.584;2023-07-30T02:57:11;18.70;99.90
4453;DHT22;2239;48.152;11.584;2023-07-30T02:59:37;18.70;99.90
4453;DHT22;2239;48.152;11.584;2023-07-30T03:02:03;18.60;99.90
4453;DHT22;2239;48.152;11.584;2023-07-30T03:04:32;18.60;99.90
4453;DHT22;2239;48.152;11.584;2023-07-30T03:06:58;18.50;99.90
4453;DHT22;2239;48.152;11.584;2023-07-30T03:09:24;18.50;99.90
4453;DHT22;2239;48.152;11.584;2023-07-30T03:11:50;18.50;99.90
4453;DHT22;2239;48.152;11.584;2023-07-30T03:14:16;18.50;99.90
4453;DHT22;2239;48.152;11.584;2023-07-30T03:16:48;18.40;99.90
4453;DHT22;2239;48.152;11.584;2023-07-30T03:19:15;18.40;99.90
4453;DHT22;2239;48.152;11.584;2023-07-30T03:21:41;18.40;99.90
4453;DHT22;2239;48.152;11.584;2023-07-30T03:24:06;18.30;99.90
4453;DHT22;2239;48.152;11.584;2023-07-30T03:26:32;18.30;99.90
4453;DHT22;2239;48.152;11.584;2023-07-30T03:28:58;18.20;99.90
4453;DHT22;2239;48.152;11.584;2023-07-30T03:31:23;18.20;99.90
4453;DHT22;2239;48.152;11.584;2023-07-30T03:33:49;18.20;99.90
4453;DHT22;2239;48.152;11.584;2023-07-30T03:36:14;18.10;99.90
4453;DHT22;2239;48.152;11.584;2023-07-30T03:38:41;18.10;99.90
4453;DHT22;2239;48.152;11.584;2023-07-30T03:41:06;18.10;99.90
4453;DHT22;2239;48.152;11.584;2023-07-30T03:43:33;18.10;99.90
4453;DHT22;2239;48.152;11.584;2023-07-30T03:45:58;18.10;99.90
4453;DHT22;2239;48.152;11.584;2023-07-30T03:48:24;18.00;99.90
4453;DHT22;2239;48.152;11.584;2023-07-30T03:50:49;18.00;99.90
4453;DHT22;2239;48.152;11.584;2023-07-30T03:53:15;18.00;99.90
4453;DHT22;2239;48.152;11.584;2023-07-30T03:55:41;18.00;99.90
4453;DHT22;2239;48.152;11.584;2023-07-30T03:58:07;18.00;99.90
4453;DHT22;2239;48.152;11.584;2023-07-30T04:00:32;18.00;99.90
4453;DHT22;2239;48.152;11.584;2023-07-30T04:02:58;18.00;99.90
4453;DHT22;2239;48.152;11.584;2023-07-30T04:05:24;18.00;99.90
4453;DHT22;2239;48.152;11.584;2023-07-30T04:07:49;18.00;99.90
4453;DHT22;2239;48.152;11.584;2023-07-30T04:10:18;18.00;99.90
4453;DHT22;2239;48.152;11.584;2023-07-30T04:12:53;18.00;99.90
4453;DHT22;2239;48.152;11.584;2023-07-30T04:15:19;18.00;99.90
4453;DHT22;2239;48.152;11.584;2023-07-30T04:17:44;18.00;99.90
4453;DHT22;2239;48.152;11.584;2023-07-30T04:20:10;18.00;99.90
4453;DHT22;2239;48.152;11.584;2023-07-30T04:22:36;18.10;99.90
4453;DHT22;2239;48.152;11.584;2023-07-30T04:25:03;18.10;99.90
4453;DHT22;2239;48.152;11.584;2023-07-30T04:27:28;18.10;99.90
4453;DHT22;2239;48.152;11.584;2023-07-30T04:29:54;18.10;99.90
4453;DHT22;2239;48.152;11.584;2023-07-30T04:32:19;18.20;99.90
4453;DHT22;2239;48.152;11.584;2023-07-30T04:34:45;18.20;99.90
4453;DHT22;2239;48.152;11.584;2023-07-30T04:37:10;18.20;99.90
4453;DHT22;2239;48.152;11.584;2023-07-30T04:39:36;18.30;99.90
4453;DHT22;2239;48.152;11.584;2023-07-30T04:42:02;18.30;99.90
4453;DHT22;2239;48.152;11.584;2023-07-30T04:44:28;18.40;99.90
4453;DHT22;2239;48.152;11.584;2023-07-30T04:46:54;18.40;99.90
4453;DHT22;2239;48.152;11.584;2023-07-30T04:49:19;18.50;99.90
4453;DHT22;2239;48.152;11.584;2023-07-30T04:51:45;18.50;99.90
4453;DHT22;2239;48.152;11.584;2023-07-30T04:54:10;18.60;99.90
4453;DHT22;2239;48.152;11.584;2023-07-30T04:56:36;18.60;99.90
4453;DHT22;2239;48.152;11.584;2023-07-30T04:59:02;18.70;99.90
4453;DHT22;2239;48.152;11.584;2023-07-30T05:01:28;18.80;99.90
4453;DHT22;2239;48.152;11.584;2023-07-30T05:03:54;18.90;99.90
4453;DHT22;2239;48.152;11.584;2023-07-30T05:06:20;18.90;99.90
4453;DHT22;2239;48.152;11.584;2023-07-30T05:08:45;19.10;99.90
4453;DHT22;2239;48.152;11.584;2023-07-30T05:11:11;19.10;99.90
4453;DHT22;2239;48.152;11.584;2023-07-30T05:13:36;19.10;99.90
4453;DHT22;2239;48.152;11.584;2023-07-30T05:16:02;19.10;99.90
4453;DHT22;2239;48.152;11.584;2023-07-30T05:18:28;19.10;99.90
4453;DHT22;2239;48.152;11.584;2023-07-30T05:20:54;19.10;99.90
4453;DHT22;2239;48.152;11.584;2023-07-30T05:23:20;19.10;99.90
4453;DHT22;2239;48.152;11.584;2023-07-30T05:25:46;19.00;99.90
4453;DHT22;2239;48.152;11.584;2023-07-30T05:28:11;19.00;99.90
4453;DHT22;2239;48.152;11.584;2023-07-30T05:30:37;19.00;99.90
4453;DHT22;2239;48.152;11.584;2023-07-30T05:33:03;19.20;99.90
4453;DHT22;2239;48.152;11.584;2023-07-30T05:35:28;19.30;99.90
4453;DHT22;2239;48.152;11.584;2023-07-30T05:37:54;19.40;99.90
4453;DHT22;2239;48.152;11.584;2023-07-30T05:40:20;19.50;99.90
4453;DHT22;2239;48.152;11.584;2023-07-30T05:42:46;19.70;99.90
4453;DHT22;2239;48.152;11.584;2023-07-30T05:45:12;19.80;99.90
4453;DHT22;2239;48.152;11.584;2023-07-30T05:47:37;19.90;99.90
4453;DHT22;2239;48.152;11.584;2023-07-30T05:50:03;20.00;99.90
4453;DHT22;2239;48.152;11.584;2023-07-30T05:52:29;20.10;99.90
4453;DHT22;2239;48.152;11.584;2023-07-30T05:54:54;20.20;99.90
4453;DHT22;2239;48.152;11.584;2023-07-30T05:57:20;20.40;99.90
4453;DHT22;2239;48.152;11.584;2023-07-30T05:59:45;20.50;99.90
4453;DHT22;2239;48.152;11.584;2023-07-30T06:02:12;20.50;99.90
4453;DHT22;2239;48.152;11.584;2023-07-30T06:04:37;20.40;99.90
4453;DHT22;2239;48.152;11.584;2023-07-30T06:07:03;20.40;99.90
4453;DHT22;2239;48.152;11.584;2023-07-30T06:09:29;20.50;99.90
4453;DHT22;2239;48.152;11.584;2023-07-30T06:11:56;20.50;99.90
4453;DHT22;2239;48.152;11.584;2023-07-30T06:14:23;20.60;99.90
4453;DHT22;2239;48.152;11.584;2023-07-30T06:16:48;20.60;99.90
4453;DHT22;2239;48.152;11.584;2023-07-30T06:19:14;20.70;99.90
4453;DHT22;2239;48.152;11.584;2023-07-30T06:21:39;20.80;99.90
4453;DHT22;2239;48.152;11.584;2023-07-30T06:24:05;20.90;99.90
4453;DHT22;2239;48.152;11.584;2023-07-30T06:26:30;21.00;99.90
4453;DHT22;2239;48.152;11.584;2023-07-30T06:28:57;21.10;99.90
4453;DHT22;2239;48.152;11.584;2023-07-30T06:31:22;21.20;99.90
4453;DHT22;2239;48.152;11.584;2023-07-30T06:33:48;21.20;99.90
4453;DHT22;2239;48.152;11.584;2023-07-30T06:36:13;21.40;99.90
4453;DHT22;2239;48.152;11.584;2023-07-30T06:38:39;21.40;99.90
4453;DHT22;2239;48.152;11.584;2023-07-30T06:41:05;21.50;99.90
4453;DHT22;2239;48.152;11.584;2023-07-30T06:43:30;21.50;99.90
4453;DHT22;2239;48.152;11.584;2023-07-30T06:45:56;21.70;99.90
4453;DHT22;2239;48.152;11.584;2023-07-30T06:48:21;21.70;99.90
4453;DHT22;2239;48.152;11.584;2023-07-30T06:50:47;21.90;99.90
4453;DHT22;2239;48.152;11.584;2023-07-30T06:53:12;22.00;99.90
4453;DHT22;2239;48.152;11.584;2023-07-30T06:55:38;22.10;99.90
4453;DHT22;2239;48.152;11.584;2023-07-30T06:58:03;22.20;99.90
4453;DHT22;2239;48.152;11.584;2023-07-30T07:00:29;22.20;99.90
4453;DHT22;2239;48.152;11.584;2023-07-30T07:02:54;22.30;99.90
4453;DHT22;2239;48.152;11.584;2023-07-30T07:05:20;22.40;99.90
4453;DHT22;2239;48.152;11.584;2023-07-30T07:07:47;22.40;99.90
4453;DHT22;2239;48.152;11.584;2023-07-30T07:10:15;22.50;99.90
4453;DHT22;2239;48.152;11.584;2023-07-30T07:12:41;22.50;99.90
4453;DHT22;2239;48.152;11.584;2023-07-30T07:15:07;22.60;99.90
4453;DHT22;2239;48.152;11.584;2023-07-30T07:17:33;22.80;99.90
4453;DHT22;2239;48.152;11.584;2023-07-30T07:19:59;22.80;99.90
4453;DHT22;2239;48.152;11.584;2023-07-30T07:22:24;22.90;99.90
4453;DHT22;2239;48.152;11.584;2023-07-30T07:24:51;22.90;99.90
4453;DHT22;2239;48.152;11.584;2023-07-30T07:27:20;23.10;99.90
4453;DHT22;2239;48.152;11.584;2023-07-30T07:29:46;23.10;99.90
4453;DHT22;2239;48.152;11.584;2023-07-30T07:32:11;23.30;99.90
4453;DHT22;2239;48.152;11.584;2023-07-30T07:34:37;23.30;99.90
4453;DHT22;2239;48.152;11.584;2023-07-30T07:37:02;23.30;99.90
4453;DHT22;2239;48.152;11.584;2023-07-30T07:39:28;23.40;99.90
4453;DHT22;2239;48.152;11.584;2023-07-30T07:41:54;23.60;99.90
4453;DHT22;2239;48.152;11.584;2023-07-30T07:44:20;23.60;99.90
4453;DHT22;2239;48.152;11.584;2023-07-30T07:46:47;23.60;99.90
4453;DHT22;2239;48.152;11.584;2023-07-30T07:49:12;23.60;99.90
4453;DHT22;2239;48.152;11.584;2023-07-30T07:51:38;23.50;99.90
4453;DHT22;2239;48.152;11.584;2023-07-30T07:54:03;23.30;99.90
4453;DHT22;2239;48.152;11.584;2023-07-30T07:56:30;23.30;99.90
4453;DHT22;2239;48.152;11.584;2023-07-30T07:58:55;23.30;99.90
4453;DHT22;2239;48.152;11.584;2023-07-30T08:01:21;23.20;99.90
4453;DHT22;2239;48.152;11.584;2023-07-30T08:03:46;23.20;99.90
4453;DHT22;2239;48.152;11.584;2023-07-30T08:06:12;23.30;99.90
4453;DHT22;2239;48.152;11.584;2023-07-30T08:08:37;23.50;99.90
4453;DHT22;2239;48.152;11.584;2023-07-30T08:11:07;23.60;99.90
4453;DHT22;2239;48.152;11.584;2023-07-30T08:13:33;23.50;99.90
4453;DHT22;2239;48.152;11.584;2023-07-30T08:15:59;23.50;99.90
4453;DHT22;2239;48.152;11.584;2023-07-30T08:18:26;23.40;99.90
4453;DHT22;2239;48.152;11.584;2023-07-30T08:20:51;23.30;99.90
4453;DHT22;2239;48.152;11.584;2023-07-30T08:23:17;23.20;99.90
4453;DHT22;2239;48.152;11.584;2023-07-30T08:25:42;23.10;99.90
4453;DHT22;2239;48.152;11.584;2023-07-30T08:28:08;23.30;99.90
4453;DHT22;2239;48.152;11.584;2023-07-30T08:30:33;23.60;99.90
4453;DHT22;2239;48.152;11.584;2023-07-30T08:32:59;23.80;99.90
4453;DHT22;2239;48.152;11.584;2023-07-30T08:35:25;23.80;99.90
4453;DHT22;2239;48.152;11.584;2023-07-30T08:37:52;23.90;99.90
4453;DHT22;2239;48.152;11.584;2023-07-30T08:40:22;24.30;99.90
4453;DHT22;2239;48.152;11.584;2023-07-30T08:42:51;24.60;99.60
4453;DHT22;2239;48.152;11.584;2023-07-30T08:45:17;24.70;99.10
4453;DHT22;2239;48.152;11.584;2023-07-30T08:47:44;24.60;98.90
4453;DHT22;2239;48.152;11.584;2023-07-30T08:50:10;24.60;98.60
4453;DHT22;2239;48.152;11.584;2023-07-30T08:52:36;24.70;98.20
4453;DHT22;2239;48.152;11.584;2023-07-30T08:55:03;24.80;98.30
4453;DHT22;2239;48.152;11.584;2023-07-30T08:57:29;24.60;97.90
4453;DHT22;2239;48.152;11.584;2023-07-30T09:00:06;24.70;97.80
4453;DHT22;2239;48.152;11.584;2023-07-30T09:02:47;24.90;97.30
4453;DHT22;2239;48.152;11.584;2023-07-30T09:05:13;25.20;97.30
4453;DHT22;2239;48.152;11.584;2023-07-30T09:07:39;25.10;96.20
4453;DHT22;2239;48.152;11.584;2023-07-30T09:10:05;25.20;96.30
4453;DHT22;2239;48.152;11.584;2023-07-30T09:12:35;25.50;96.10
4453;DHT22;2239;48.152;11.584;2023-07-30T09:15:02;25.90;95.70
4453;DHT22;2239;48.152;11.584;2023-07-30T09:17:30;26.10;95.10
4453;DHT22;2239;48.152;11.584;2023-07-30T09:19:58;26.30;93.50
4453;DHT22;2239;48.152;11.584;2023-07-30T09:22:27;26.20;93.40
4453;DHT22;2239;48.152;11.584;2023-07-30T09:24:56;26.10;93.40
4453;DHT22;2239;48.152;11.584;2023-07-30T09:27:25;26.00;93.80
4453;DHT22;2239;48.152;11.584;2023-07-30T09:29:53;25.90;93.70
4453;DHT22;2239;48.152;11.584;2023-07-30T09:32:19;25.80;93.90
4453;DHT22;2239;48.152;11.584;2023-07-30T09:34:45;26.00;93.30
4453;DHT22;2239;48.152;11.584;2023-07-30T09:37:11;26.30;92.50
4453;DHT22;2239;48.152;11.584;2023-07-30T09:39:37;26.40;91.70
4453;DHT22;2239;48.152;11.584;2023-07-30T09:42:03;26.40;91.50
4453;DHT22;2239;48.152;11.584;2023-07-30T09:44:32;26.40;92.30
4453;DHT22;2239;48.152;11.584;2023-07-30T09:46:59;26.80;91.70
4453;DHT22;2239;48.152;11.584;2023-07-30T09:49:30;27.10;91.80
4453;DHT22;2239;48.152;11.584;2023-07-30T09:51:56;27.10;91.10
4453;DHT22;2239;48.152;11.584;2023-07-30T09:54:23;27.10;90.60
4453;DHT22;2239;48.152;11.584;2023-07-30T09:56:48;27.30;90.80
4453;DHT22;2239;48.152;11.584;2023-07-30T09:59:14;27.30;90.70
4453;DHT22;2239;48.152;11.584;2023-07-30T10:01:46;27.10;90.60
4453;DHT22;2239;48.152;11.584;2023-07-30T10:04:15;27.30;90.50
4453;DHT22;2239;48.152;11.584;2023-07-30T10:06:51;27.60;90.50
4453;DHT22;2239;48.152;11.584;2023-07-30T10:09:19;28.00;88.90
4453;DHT22;2239;48.152;11.584;2023-07-30T10:11:46;27.90;88.50
4453;DHT22;2239;48.152;11.584;2023-07-30T10:14:13;27.60;88.80
4453;DHT22;2239;48.152;11.584;2023-07-30T10:16:50;27.50;88.70
4453;DHT22;2239;48.152;11.584;2023-07-30T10:19:15;27.10;90.00
4453;DHT22;2239;48.152;11.584;2023-07-30T10:21:42;26.70;90.00
4453;DHT22;2239;48.152;11.584;2023-07-30T10:24:08;26.10;89.70
4453;DHT22;2239;48.152;11.584;2023-07-30T10:26:35;25.60;90.60
4453;DHT22;2239;48.152;11.584;2023-07-30T10:29:19;25.20;91.20
4453;DHT22;2239;48.152;11.584;2023-07-30T10:31:53;24.90;91.80
4453;DHT22;2239;48.152;11.584;2023-07-30T10:34:19;24.90;92.10
4453;DHT22;2239;48.152;11.584;2023-07-30T10:36:47;24.90;92.10
4453;DHT22;2239;48.152;11.584;2023-07-30T10:39:27;25.10;92.30
4453;DHT22;2239;48.152;11.584;2023-07-30T10:41:57;25.30;92.50
4453;DHT22;2239;48.152;11.584;2023-07-30T10:44:33;25.50;92.10
4453;DHT22;2239;48.152;11.584;2023-07-30T10:47:00;25.70;91.90
4453;DHT22;2239;48.152;11.584;2023-07-30T10:49:26;25.80;91.40
4453;DHT22;2239;48.152;11.584;2023-07-30T10:51:53;25.80;92.20
4453;DHT22;2239;48.152;11.584;2023-07-30T10:54:20;26.00;91.40
4453;DHT22;2239;48.152;11.584;2023-07-30T10:56:46;26.10;91.80
4453;DHT22;2239;48.152;11.584;2023-07-30T10:59:14;26.40;91.00
4453;DHT22;2239;48.152;11.584;2023-07-30T11:01:42;26.40;91.00
4453;DHT22;2239;48.152;11.584;2023-07-30T11:04:13;26.40;90.90
4453;DHT22;2239;48.152;11.584;2023-07-30T11:06:39;26.40;91.00
4453;DHT22;2239;48.152;11.584;2023-07-30T11:09:05;26.30;91.10
4453;DHT22;2239;48.152;11.584;2023-07-30T11:11:31;26.40;91.60
4453;DHT22;2239;48.152;11.584;2023-07-30T11:13:57;26.50;90.90
4453;DHT22;2239;48.152;11.584;2023-07-30T11:16:24;26.50;90.10
4453;DHT22;2239;48.152;11.584;2023-07-30T11:18:49;26.40;88.30
4453;DHT22;2239;48.152;11.584;2023-07-30T11:21:17;26.40;87.40
4453;DHT22;2239;48.152;11.584;2023-07-30T11:23:44;26.40;87.70
4453;DHT22;2239;48.152;11.584;2023-07-30T11:26:15;26.40;88.20
4453;DHT22;2239;48.152;11.584;2023-07-30T11:28:41;26.50;88.10
4453;DHT22;2239;48.152;11.584;2023-07-30T11:31:12;26.70;87.50
4453;DHT22;2239;48.152;11.584;2023-07-30T11:33:41;26.90;87.20
4453;DHT22;2239;48.152;11.584;2023-07-30T11:36:10;26.80;85.90
4453;DHT22;2239;48.152;11.584;2023-07-30T11:38:37;26.60;87.00
4453;DHT22;2239;48.152;11.584;2023-07-30T11:41:03;26.40;87.40
4453;DHT22;2239;48.152;11.584;2023-07-30T11:43:30;26.40;87.50
4453;DHT22;2239;48.152;11.584;2023-07-30T11:46:06;26.20;87.60
4453;DHT22;2239;48.152;11.584;2023-07-30T11:48:33;26.00;88.10
4453;DHT22;2239;48.152;11.584;2023-07-30T11:50:58;25.80;88.50
4453;DHT22;2239;48.152;11.584;2023-07-30T11:53:47;25.60;91.40
4453;DHT22;2239;48.152;11.584;2023-07-30T11:56:17;25.30;92.10
4453;DHT22;2239;48.152;11.584;2023-07-30T11:58:43;25.20;92.40
4453;DHT22;2239;48.152;11.584;2023-07-30T12:01:09;25.30;92.40
4453;DHT22;2239;48.152;11.584;2023-07-30T12:03:35;25.50;91.70
4453;DHT22;2239;48.152;11.584;2023-07-30T12:06:05;25.70;91.60
4453;DHT22;2239;48.152;11.584;2023-07-30T12:08:31;25.90;91.50
4453;DHT22;2239;48.152;11.584;2023-07-30T12:11:05;26.10;91.40
4453;DHT22;2239;48.152;11.584;2023-07-30T12:13:31;26.50;90.80
4453;DHT22;2239;48.152;11.584;2023-07-30T12:15:57;26.90;90.50
4453;DHT22;2239;48.152;11.584;2023-07-30T12:18:25;27.00;89.90
4453;DHT22;2239;48.152;11.584;2023-07-30T12:20:52;27.20;89.40
4453;DHT22;2239;48.152;11.584;2023-07-30T12:23:19;27.20;89.40
4453;DHT22;2239;48.152;11.584;2023-07-30T12:25:45;27.30;89.30
4453;DHT22;2239;48.152;11.584;2023-07-30T12:28:11;27.10;88.80
4453;DHT22;2239;48.152;11.584;2023-07-30T12:30:37;27.00;90.00
4453;DHT22;2239;48.152;11.584;2023-07-30T12:33:03;27.10;90.20
4453;DHT22;2239;48.152;11.584;2023-07-30T12:35:29;27.10;90.30
4453;DHT22;2239;48.152;11.584;2023-07-30T12:37:55;27.00;90.80
4453;DHT22;2239;48.152;11.584;2023-07-30T12:40:21;26.80;91.20
4453;DHT22;2239;48.152;11.584;2023-07-30T12:42:46;26.90;91.40
4453;DHT22;2239;48.152;11.584;2023-07-30T12:45:12;27.30;91.20
4453;DHT22;2239;48.152;11.584;2023-07-30T12:47:37;27.60;91.20
4453;DHT22;2239;48.152;11.584;2023-07-30T12:50:04;27.50;90.80
4453;DHT22;2239;48.152;11.584;2023-07-30T12:52:32;27.40;91.40
4453;DHT22;2239;48.152;11.584;2023-07-30T12:54:57;27.50;90.90
4453;DHT22;2239;48.152;11.584;2023-07-30T12:57:23;27.50;90.60
4453;DHT22;2239;48.152;11.584;2023-07-30T12:59:48;27.50;90.90
4453;DHT22;2239;48.152;11.584;2023-07-30T13:02:14;27.20;91.40
4453;DHT22;2239;48.152;11.584;2023-07-30T13:04:39;26.80;92.10
4453;DHT22;2239;48.152;11.584;2023-07-30T13:07:05;26.60;92.70
4453;DHT22;2239;48.152;11.584;2023-07-30T13:09:31;26.60;93.00
4453;DHT22;2239;48.152;11.584;2023-07-30T13:11:57;27.00;92.70
4453;DHT22;2239;48.152;11.584;2023-07-30T13:14:23;27.40;91.90
4453;DHT22;2239;48.152;11.584;2023-07-30T13:16:48;27.40;91.80
4453;DHT22;2239;48.152;11.584;2023-07-30T13:19:14;27.30;92.30
4453;DHT22;2239;48.152;11.584;2023-07-30T13:21:39;27.00;92.40
4453;DHT22;2239;48.152;11.584;2023-07-30T13:24:05;26.80;92.70
4453;DHT22;2239;48.152;11.584;2023-07-30T13:26:30;26.50;93.20
4453;DHT22;2239;48.152;11.584;2023-07-30T13:28:56;26.30;93.30
4453;DHT22;2239;48.152;11.584;2023-07-30T13:31:21;26.10;93.50
4453;DHT22;2239;48.152;11.584;2023-07-30T13:33:47;25.90;93.80
4453;DHT22;2239;48.152;11.584;2023-07-30T13:36:13;25.50;94.10
4453;DHT22;2239;48.152;11.584;2023-07-30T13:38:39;25.30;94.90
4453;DHT22;2239;48.152;11.584;2023-07-30T13:41:05;25.10;95.20
4453;DHT22;2239;48.152;11.584;2023-07-30T13:43:32;24.60;95.90
4453;DHT22;2239;48.152;11.584;2023-07-30T13:45:57;24.30;96.50
4453;DHT22;2239;48.152;11.584;2023-07-30T13:48:24;24.10;99.20
4453;DHT22;2239;48.152;11.584;2023-07-30T13:50:50;23.60;99.90
4453;DHT22;2239;48.152;11.584;2023-07-30T13:53:15;23.20;99.90
4453;DHT22;2239;48.152;11.584;2023-07-30T13:55:41;23.00;99.90
4453;DHT22;2239;48.152;11.584;2023-07-30T13:58:06;23.10;99.90
4453;DHT22;2239;48.152;11.584;2023-07-30T14:00:32;23.10;99.90
4453;DHT22;2239;48.152;11.584;2023-07-30T14:02:57;23.40;99.90
4453;DHT22;2239;48.152;11.584;2023-07-30T14:05:23;23.50;99.90
4453;DHT22;2239;48.152;11.584;2023-07-30T14:07:49;23.90;99.90
4453;DHT22;2239;48.152;11.584;2023-07-30T14:10:19;24.10;99.90
4453;DHT22;2239;48.152;11.584;2023-07-30T14:12:45;24.30;99.90
4453;DHT22;2239;48.152;11.584;2023-07-30T14:15:11;24.40;99.90
4453;DHT22;2239;48.152;11.584;2023-07-30T14:17:36;24.50;99.90
4453;DHT22;2239;48.152;11.584;2023-07-30T14:20:02;24.60;99.90
4453;DHT22;2239;48.152;11.584;2023-07-30T14:22:28;24.80;99.90
4453;DHT22;2239;48.152;11.584;2023-07-30T14:24:53;25.10;99.90
4453;DHT22;2239;48.152;11.584;2023-07-30T14:27:19;25.20;99.90
4453;DHT22;2239;48.152;11.584;2023-07-30T14:29:45;25.20;99.90
4453;DHT22;2239;48.152;11.584;2023-07-30T14:32:11;25.20;99.90
4453;DHT22;2239;48.152;11.584;2023-07-30T14:34:39;25.30;99.90
4453;DHT22;2239;48.152;11.584;2023-07-30T14:37:05;25.40;99.90
4453;DHT22;2239;48.152;11.584;2023-07-30T14:39:31;25.50;99.90
4453;DHT22;2239;48.152;11.584;2023-07-30T14:41:56;25.60;99.90
4453;DHT22;2239;48.152;11.584;2023-07-30T14:44:22;25.60;99.90
4453;DHT22;2239;48.152;11.584;2023-07-30T14:46:47;25.60;99.90
4453;DHT22;2239;48.152;11.584;2023-07-30T14:49:13;25.40;99.90
4453;DHT22;2239;48.152;11.584;2023-07-30T14:51:38;25.10;99.90
4453;DHT22;2239;48.152;11.584;2023-07-30T14:54:04;25.00;99.90
4453;DHT22;2239;48.152;11.584;2023-07-30T14:56:29;25.10;99.90
4453;DHT22;2239;48.152;11.584;2023-07-30T14:58:55;25.20;99.90
4453;DHT22;2239;48.152;11.584;2023-07-30T15:01:22;25.40;99.80
4453;DHT22;2239;48.152;11.584;2023-07-30T15:03:48;25.50;98.90
4453;DHT22;2239;48.152;11.584;2023-07-30T15:06:13;25.60;98.70
4453;DHT22;2239;48.152;11.584;2023-07-30T15:08:39;25.50;98.50
4453;DHT22;2239;48.152;11.584;2023-07-30T15:11:04;25.50;96.50
4453;DHT22;2239;48.152;11.584;2023-07-30T15:13:30;25.60;94.30
4453;DHT22;2239;48.152;11.584;2023-07-30T15:15:57;25.80;93.10
4453;DHT22;2239;48.152;11.584;2023-07-30T15:18:22;26.00;92.20
4453;DHT22;2239;48.152;11.584;2023-07-30T15:20:48;26.10;91.60
4453;DHT22;2239;48.152;11.584;2023-07-30T15:23:14;26.20;92.30
4453;DHT22;2239;48.152;11.584;2023-07-30T15:25:40;26.10;91.30
4453;DHT22;2239;48.152;11.584;2023-07-30T15:28:05;26.00;90.80
4453;DHT22;2239;48.152;11.584;2023-07-30T15:30:31;25.80;90.20
4453;DHT22;2239;48.152;11.584;2023-07-30T15:32:57;25.70;90.80
4453;DHT22;2239;48.152;11.584;2023-07-30T15:35:23;25.70;90.20
4453;DHT22;2239;48.152;11.584;2023-07-30T15:37:48;25.70;90.20
4453;DHT22;2239;48.152;11.584;2023-07-30T15:40:17;25.90;88.30